createdAt,value
2023-04-09T00:00:17.949Z,98.21
2023-04-09T00:02:45.090Z,98.19
2023-04-09T00:05:12.259Z,97.86
2023-04-09T00:07:39.278Z,98.79
2023-04-09T00:10:07.510Z,99.08
2023-04-09T00:12:34.611Z,99.57
2023-04-09T00:15:01.651Z,99.84
2023-04-09T00:17:28.672Z,99.17
2023-04-09T00:19:56.221Z,99.52
2023-04-09T00:22:23.347Z,99.58
2023-04-09T00:24:50.421Z,99.76
2023-04-09T00:27:17.490Z,100.00
2023-04-09T00:29:44.571Z,100.00
2023-04-09T00:32:11.574Z,100.00
2023-04-09T00:34:38.904Z,100.00
2023-04-09T00:37:06.397Z,100.00
2023-04-09T00:39:33.453Z,99.89
2023-04-09T00:42:04.171Z,99.62
2023-04-09T00:44:31.296Z,99.62
2023-04-09T00:47:02.673Z,100.00
2023-04-09T00:49:29.906Z,100.00
2023-04-09T00:51:57.128Z,100.00
2023-04-09T00:54:24.109Z,100.00
2023-04-09T00:56:52.020Z,100.00
2023-04-09T00:59:19.690Z,100.00
2023-04-09T01:01:46.726Z,100.00
2023-04-09T01:04:13.904Z,100.00
2023-04-09T01:06:51.983Z,100.00
2023-04-09T01:09:35.501Z,100.00
2023-04-09T01:12:35.936Z,100.00
2023-04-09T01:15:08.714Z,100.00
2023-04-09T01:18:07.708Z,100.00
2023-04-09T01:20:48.071Z,100.00
2023-04-09T01:23:29.591Z,100.00
2023-04-09T01:26:15.018Z,100.00
2023-04-09T01:28:49.128Z,100.00
2023-04-09T01:31:20.279Z,100.00
2023-04-09T01:33:47.683Z,100.00
2023-04-09T01:36:15.466Z,100.00
2023-04-09T01:38:43.523Z,100.00
2023-04-09T01:41:17.290Z,100.00
2023-04-09T01:43:45.512Z,100.00
2023-04-09T01:46:13.783Z,100.00
2023-04-09T01:48:41.249Z,100.00
2023-04-09T01:51:08.290Z,100.00
2023-04-09T01:53:36.288Z,100.00
2023-04-09T01:56:03.759Z,100.00
2023-04-09T01:58:30.872Z,100.00
2023-04-09T02:01:14.584Z,100.00
2023-04-09T02:03:49.135Z,100.00
2023-04-09T02:06:43.046Z,100.00
2023-04-09T02:09:11.375Z,100.00
2023-04-09T02:11:41.740Z,100.00
2023-04-09T02:14:11.377Z,100.00
2023-04-09T02:16:39.995Z,100.00
2023-04-09T02:19:07.005Z,100.00
2023-04-09T02:21:34.378Z,100.00
2023-04-09T02:24:01.366Z,100.00
2023-04-09T02:26:28.430Z,100.00
2023-04-09T02:28:55.463Z,100.00
2023-04-09T02:31:22.451Z,100.00
2023-04-09T02:33:49.490Z,100.00
2023-04-09T02:36:16.595Z,100.00
2023-04-09T02:38:43.753Z,100.00
2023-04-09T02:41:10.897Z,100.00
2023-04-09T02:43:38.032Z,100.00
2023-04-09T02:46:05.358Z,100.00
2023-04-09T02:48:32.760Z,100.00
2023-04-09T02:50:59.777Z,100.00
2023-04-09T02:53:27.076Z,100.00
2023-04-09T02:55:54.116Z,100.00
2023-04-09T02:58:21.141Z,100.00
2023-04-09T03:00:48.160Z,100.00
2023-04-09T03:03:15.539Z,100.00
2023-04-09T03:05:42.705Z,100.00
2023-04-09T03:08:09.720Z,100.00
2023-04-09T03:10:36.754Z,100.00
2023-04-09T03:13:03.752Z,100.00
2023-04-09T03:15:30.770Z,100.00
2023-04-09T03:17:57.784Z,100.00
2023-04-09T03:20:24.884Z,100.00
2023-04-09T03:22:51.866Z,100.00
2023-04-09T03:25:20.675Z,100.00
2023-04-09T03:27:47.813Z,100.00
2023-04-09T03:30:14.794Z,100.00
2023-04-09T03:32:41.875Z,100.00
2023-04-09T03:35:09.212Z,100.00
2023-04-09T03:37:36.235Z,100.00
2023-04-09T03:40:04.007Z,100.00
2023-04-09T03:42:31.457Z,100.00
2023-04-09T03:44:58.461Z,100.00
2023-04-09T03:47:25.610Z,100.00
2023-04-09T03:49:52.722Z,100.00
2023-04-09T03:52:19.774Z,100.00
2023-04-09T03:54:46.787Z,100.00
2023-04-09T03:57:13.826Z,100.00
2023-04-09T03:59:40.804Z,100.00
2023-04-09T04:02:07.838Z,100.00
2023-04-09T04:04:34.979Z,100.00
2023-04-09T04:07:03.989Z,100.00
2023-04-09T04:09:31.077Z,100.00
2023-04-09T04:11:58.953Z,100.00
2023-04-09T04:14:26.010Z,100.00
2023-04-09T04:16:52.995Z,100.00
2023-04-09T04:19:19.959Z,100.00
2023-04-09T04:21:47.084Z,100.00
2023-04-09T04:24:14.038Z,100.00
2023-04-09T04:26:41.063Z,100.00
2023-04-09T04:29:08.140Z,100.00
2023-04-09T04:31:35.201Z,100.00
2023-04-09T04:34:02.241Z,100.00
2023-04-09T04:36:29.327Z,100.00
2023-04-09T04:38:56.282Z,100.00
2023-04-09T04:41:23.395Z,100.00
2023-04-09T04:43:50.408Z,100.00
2023-04-09T04:46:17.495Z,100.00
2023-04-09T04:48:44.579Z,100.00
2023-04-09T04:51:11.567Z,100.00
2023-04-09T04:53:38.654Z,100.00
2023-04-09T04:56:05.962Z,100.00
2023-04-09T04:58:32.924Z,100.00
2023-04-09T05:01:00.686Z,100.00
2023-04-09T05:03:27.836Z,100.00
2023-04-09T05:05:55.023Z,100.00
2023-04-09T05:08:22.043Z,100.00
2023-04-09T05:10:49.070Z,100.00
2023-04-09T05:13:16.054Z,99.51
2023-04-09T05:15:43.167Z,99.31
2023-04-09T05:18:10.444Z,98.88
2023-04-09T05:20:37.450Z,97.79
2023-04-09T05:23:04.566Z,96.59
2023-04-09T05:25:31.689Z,95.33
2023-04-09T05:27:58.660Z,94.48
2023-04-09T05:30:25.943Z,92.54
2023-04-09T05:32:52.972Z,89.83
2023-04-09T05:35:20.466Z,86.73
2023-04-09T05:37:47.474Z,84.20
2023-04-09T05:40:15.008Z,82.37
2023-04-09T05:42:42.085Z,80.88
2023-04-09T05:45:09.988Z,78.32
2023-04-09T05:47:37.141Z,80.30
2023-04-09T05:50:04.670Z,78.55
2023-04-09T05:52:32.195Z,81.41
2023-04-09T05:54:59.266Z,80.20
2023-04-09T05:57:26.286Z,79.58
2023-04-09T05:59:53.476Z,78.25
2023-04-09T06:02:20.667Z,77.89
2023-04-09T06:04:47.929Z,78.00
2023-04-09T06:07:15.010Z,77.01
2023-04-09T06:09:44.198Z,75.30
2023-04-09T06:12:11.408Z,75.17
2023-04-09T06:14:38.405Z,73.69
2023-04-09T06:17:05.602Z,72.30
2023-04-09T06:19:32.618Z,72.01
2023-04-09T06:21:59.756Z,72.28
2023-04-09T06:24:27.182Z,71.78
2023-04-09T06:26:54.174Z,71.62
2023-04-09T06:29:23.164Z,71.32
2023-04-09T06:31:51.503Z,69.65
2023-04-09T06:34:18.498Z,68.46
2023-04-09T06:36:45.949Z,68.22
2023-04-09T06:39:12.944Z,71.20
2023-04-09T06:41:39.952Z,71.75
2023-04-09T06:44:07.140Z,69.85
2023-04-09T06:46:34.194Z,69.19
2023-04-09T06:49:01.178Z,69.70
2023-04-09T06:51:28.305Z,69.30
2023-04-09T06:53:55.570Z,68.74
2023-04-09T06:56:22.836Z,69.40
2023-04-09T06:58:49.836Z,68.75
2023-04-09T07:01:17.514Z,67.82
2023-04-09T07:03:44.931Z,66.63
2023-04-09T07:06:12.139Z,68.71
2023-04-09T07:08:39.182Z,69.56
2023-04-09T07:11:06.256Z,68.09
2023-04-09T07:13:33.500Z,68.25
2023-04-09T07:16:00.794Z,67.82
2023-04-09T07:18:27.903Z,66.76
2023-04-09T07:20:55.311Z,65.67
2023-04-09T07:23:22.944Z,65.43
2023-04-09T07:25:50.024Z,64.73
2023-04-09T07:28:17.048Z,64.75
2023-04-09T07:30:44.108Z,63.59
2023-04-09T07:33:11.357Z,61.71
2023-04-09T07:35:38.434Z,61.43
2023-04-09T07:38:05.410Z,61.31
2023-04-09T07:40:34.636Z,62.02
2023-04-09T07:43:01.678Z,60.42
2023-04-09T07:45:28.744Z,59.98
2023-04-09T07:47:56.030Z,59.70
2023-04-09T07:50:23.111Z,59.40
2023-04-09T07:52:50.095Z,58.36
2023-04-09T07:55:18.525Z,58.00
2023-04-09T07:57:45.913Z,57.73
2023-04-09T08:00:13.517Z,56.08
2023-04-09T08:02:40.908Z,55.32
2023-04-09T08:05:08.764Z,54.74
2023-04-09T08:07:36.896Z,54.34
2023-04-09T08:10:04.873Z,53.47
2023-04-09T08:12:31.932Z,53.94
2023-04-09T08:14:58.953Z,52.83
2023-04-09T08:17:25.930Z,52.76
2023-04-09T08:19:53.090Z,51.01
2023-04-09T08:22:20.093Z,50.29
2023-04-09T08:24:52.944Z,50.18
2023-04-09T08:27:20.422Z,49.29
2023-04-09T08:29:47.636Z,48.80
2023-04-09T08:32:14.887Z,48.92
2023-04-09T08:34:42.110Z,48.99
2023-04-09T08:37:09.117Z,48.37
2023-04-09T08:39:36.755Z,49.59
2023-04-09T08:42:07.232Z,50.93
2023-04-09T08:44:34.397Z,52.84
2023-04-09T08:47:02.687Z,53.56
2023-04-09T08:49:29.718Z,54.26
2023-04-09T08:51:57.084Z,55.21
2023-04-09T08:54:26.763Z,55.26
2023-04-09T08:56:53.848Z,54.90
2023-04-09T08:59:21.213Z,55.36
2023-04-09T09:01:54.200Z,55.52
2023-04-09T09:04:21.659Z,55.96
2023-04-09T09:06:48.702Z,54.94
2023-04-09T09:09:17.626Z,56.91
2023-04-09T09:11:51.025Z,56.50
2023-04-09T09:14:19.886Z,57.17
2023-04-09T09:16:56.185Z,56.98
2023-04-09T09:19:26.646Z,56.95
2023-04-09T09:22:04.910Z,56.43
2023-04-09T09:24:33.981Z,55.71
2023-04-09T09:27:02.546Z,54.93
2023-04-09T09:29:29.814Z,55.29
2023-04-09T09:31:57.012Z,54.89
2023-04-09T09:34:25.430Z,54.72
2023-04-09T09:36:52.740Z,53.87
2023-04-09T09:39:20.139Z,53.73
2023-04-09T09:41:48.868Z,54.84
2023-04-09T09:44:33.197Z,55.65
2023-04-09T09:47:03.548Z,54.82
2023-04-09T09:49:30.789Z,53.85
2023-04-09T09:52:02.985Z,53.06
2023-04-09T09:54:39.953Z,52.58
2023-04-09T09:57:10.752Z,51.69
2023-04-09T09:59:40.640Z,51.09
2023-04-09T10:02:20.026Z,49.61
2023-04-09T10:04:53.794Z,50.89
2023-04-09T10:07:22.383Z,49.70
2023-04-09T10:09:56.705Z,51.14
2023-04-09T10:12:25.064Z,51.18
2023-04-09T10:14:53.157Z,51.67
2023-04-09T10:17:21.781Z,51.50
2023-04-09T10:20:12.909Z,52.10
2023-04-09T10:22:43.505Z,54.24
2023-04-09T10:25:10.850Z,54.08
2023-04-09T10:27:37.816Z,55.30
2023-04-09T10:30:10.338Z,55.92
2023-04-09T10:32:37.462Z,55.05
2023-04-09T10:35:05.158Z,54.62
2023-04-09T10:37:32.301Z,53.81
2023-04-09T10:39:59.348Z,53.66
2023-04-09T10:42:42.089Z,53.03
2023-04-09T10:45:11.561Z,52.85
2023-04-09T10:47:41.554Z,52.63
2023-04-09T10:50:25.796Z,51.82
2023-04-09T10:52:56.427Z,52.55
2023-04-09T10:55:39.947Z,51.80
2023-04-09T10:58:13.596Z,51.34
2023-04-09T11:00:44.058Z,51.26
2023-04-09T11:03:24.039Z,50.51
2023-04-09T11:05:56.852Z,51.23
2023-04-09T11:08:23.995Z,50.75
2023-04-09T11:10:53.393Z,51.60
2023-04-09T11:13:21.899Z,51.52
2023-04-09T11:15:49.083Z,52.71
2023-04-09T11:18:30.914Z,51.71
2023-04-09T11:21:03.844Z,51.77
2023-04-09T11:23:32.924Z,51.37
2023-04-09T11:26:00.139Z,51.38
2023-04-09T11:28:27.429Z,51.51
2023-04-09T11:30:54.420Z,51.27
2023-04-09T11:33:21.613Z,50.42
2023-04-09T11:35:49.154Z,50.20
2023-04-09T11:38:16.237Z,49.46
2023-04-09T11:40:51.516Z,50.48
2023-04-09T11:43:20.862Z,51.07
2023-04-09T11:45:48.704Z,50.27
2023-04-09T11:48:18.489Z,49.49
2023-04-09T11:50:47.486Z,49.58
2023-04-09T11:53:22.829Z,50.36
2023-04-09T11:55:54.276Z,50.49
2023-04-09T11:58:26.648Z,49.57
2023-04-09T12:01:03.920Z,49.80
2023-04-09T12:03:33.152Z,48.45
2023-04-09T12:06:02.825Z,50.63
2023-04-09T12:08:31.317Z,48.98
2023-04-09T12:11:12.149Z,48.52
2023-04-09T12:13:45.656Z,48.18
2023-04-09T12:16:13.829Z,48.27
2023-04-09T12:18:41.259Z,47.99
2023-04-09T12:21:08.385Z,47.07
2023-04-09T12:23:35.630Z,48.71
2023-04-09T12:26:02.684Z,48.78
2023-04-09T12:28:29.880Z,47.43
2023-04-09T12:30:58.305Z,47.97
2023-04-09T12:33:25.382Z,47.10
2023-04-09T12:35:52.366Z,46.72
2023-04-09T12:38:19.384Z,45.66
2023-04-09T12:40:46.731Z,45.63
2023-04-09T12:43:13.693Z,45.53
2023-04-09T12:45:40.714Z,45.45
2023-04-09T12:48:07.792Z,45.14
2023-04-09T12:50:34.855Z,45.08
2023-04-09T12:53:01.856Z,45.16
2023-04-09T12:55:29.003Z,45.29
2023-04-09T12:57:56.140Z,45.05
2023-04-09T13:00:23.285Z,45.22
2023-04-09T13:02:52.741Z,45.56
2023-04-09T13:05:19.993Z,46.28
2023-04-09T13:07:46.981Z,46.90
2023-04-09T13:10:13.984Z,47.71
2023-04-09T13:12:41.218Z,48.12
2023-04-09T13:15:08.446Z,48.07
2023-04-09T13:17:35.648Z,48.87
2023-04-09T13:20:03.772Z,48.79
2023-04-09T13:22:31.024Z,49.58
2023-04-09T13:24:58.035Z,48.94
2023-04-09T13:27:25.116Z,48.89
2023-04-09T13:29:52.124Z,48.99
2023-04-09T13:32:21.108Z,51.52
2023-04-09T13:34:48.200Z,57.11
2023-04-09T13:37:15.782Z,61.70
2023-04-09T13:39:44.300Z,68.03
2023-04-09T13:42:14.051Z,70.29
2023-04-09T13:44:44.620Z,72.16
2023-04-09T13:47:13.585Z,70.96
2023-04-09T13:49:41.402Z,69.03
2023-04-09T13:52:09.514Z,70.31
2023-04-09T13:54:37.289Z,67.61
2023-04-09T13:57:04.552Z,69.43
2023-04-09T13:59:31.536Z,69.44
2023-04-09T14:01:58.742Z,70.91
2023-04-09T14:04:26.081Z,70.12
2023-04-09T14:06:53.151Z,68.68
2023-04-09T14:09:20.325Z,67.62
2023-04-09T14:11:47.341Z,68.55
2023-04-09T14:14:14.332Z,69.80
2023-04-09T14:16:41.470Z,72.36
2023-04-09T14:19:10.106Z,73.14
2023-04-09T14:21:37.280Z,71.62
2023-04-09T14:24:04.399Z,73.94
2023-04-09T14:26:31.634Z,73.55
2023-04-09T14:28:58.593Z,74.22
2023-04-09T14:31:25.569Z,76.20
2023-04-09T14:33:52.624Z,75.53
2023-04-09T14:36:19.590Z,76.47
2023-04-09T14:38:48.480Z,76.75
2023-04-09T14:41:16.519Z,77.03
2023-04-09T14:43:43.520Z,78.71
2023-04-09T14:46:12.203Z,78.15
2023-04-09T14:48:40.015Z,78.51
2023-04-09T14:51:11.088Z,79.15
2023-04-09T14:53:38.608Z,78.64
2023-04-09T14:56:06.658Z,78.33
2023-04-09T14:58:33.730Z,79.84
2023-04-09T15:01:00.802Z,79.30
2023-04-09T15:03:28.160Z,78.44
2023-04-09T15:05:55.553Z,78.99
2023-04-09T15:08:23.660Z,80.28
2023-04-09T15:10:51.263Z,80.95
2023-04-09T15:13:18.399Z,80.72
2023-04-09T15:15:45.515Z,80.58
2023-04-09T15:18:12.594Z,78.74
2023-04-09T15:20:40.502Z,78.24
2023-04-09T15:23:07.547Z,79.90
2023-04-09T15:25:34.561Z,79.39
2023-04-09T15:28:03.236Z,80.29
2023-04-09T15:30:30.695Z,81.15
2023-04-09T15:32:58.145Z,81.08
2023-04-09T15:35:29.103Z,80.60
2023-04-09T15:37:57.088Z,80.03
2023-04-09T15:40:24.224Z,80.02
2023-04-09T15:42:51.324Z,81.64
2023-04-09T15:45:18.447Z,81.39
2023-04-09T15:47:46.211Z,80.03
2023-04-09T15:50:14.154Z,78.43
2023-04-09T15:52:41.232Z,78.73
2023-04-09T15:55:09.160Z,78.13
2023-04-09T15:57:36.505Z,78.54
2023-04-09T16:00:03.904Z,77.97
2023-04-09T16:02:30.981Z,78.11
2023-04-09T16:04:58.081Z,77.23
2023-04-09T16:07:25.178Z,77.76
2023-04-09T16:09:52.322Z,77.45
2023-04-09T16:12:19.268Z,75.86
2023-04-09T16:14:46.339Z,75.18
2023-04-09T16:17:13.296Z,74.65
2023-04-09T16:19:40.330Z,74.64
2023-04-09T16:22:07.507Z,74.75
2023-04-09T16:24:34.576Z,73.86
2023-04-09T16:27:01.625Z,73.14
2023-04-09T16:29:28.634Z,73.76
2023-04-09T16:31:57.557Z,73.63
2023-04-09T16:34:25.004Z,72.81
2023-04-09T16:36:52.021Z,73.08
2023-04-09T16:39:19.921Z,73.15
2023-04-09T16:41:47.017Z,73.29
2023-04-09T16:44:14.027Z,73.77
2023-04-09T16:46:41.054Z,74.01
2023-04-09T16:49:08.137Z,75.21
2023-04-09T16:51:35.270Z,75.67
2023-04-09T16:54:02.344Z,76.40
2023-04-09T16:56:29.336Z,76.74
2023-04-09T16:58:56.340Z,77.14
2023-04-09T17:01:23.435Z,76.81
2023-04-09T17:03:50.729Z,76.93
2023-04-09T17:06:18.088Z,77.08
2023-04-09T17:08:45.876Z,76.71
2023-04-09T17:11:17.212Z,76.77
2023-04-09T17:13:44.272Z,76.56
2023-04-09T17:16:11.921Z,76.35
2023-04-09T17:18:39.274Z,76.49
2023-04-09T17:21:07.054Z,76.72
2023-04-09T17:23:34.149Z,76.56
2023-04-09T17:26:02.293Z,76.81
2023-04-09T17:28:29.510Z,76.89
2023-04-09T17:30:56.587Z,76.77
2023-04-09T17:33:23.646Z,78.06
2023-04-09T17:35:50.903Z,79.03
2023-04-09T17:38:21.289Z,79.31
2023-04-09T17:40:48.842Z,79.88
2023-04-09T17:43:15.870Z,79.25
2023-04-09T17:45:43.288Z,79.57
2023-04-09T17:48:10.859Z,79.41
2023-04-09T17:50:39.111Z,79.34
2023-04-09T17:53:06.238Z,79.33
2023-04-09T17:55:33.249Z,79.03
2023-04-09T17:58:00.382Z,79.12
2023-04-09T18:00:27.583Z,79.18
2023-04-09T18:02:54.927Z,78.34
2023-04-09T18:05:23.038Z,77.92
2023-04-09T18:07:50.831Z,79.46
2023-04-09T18:10:18.670Z,81.17
2023-04-09T18:12:45.845Z,81.63
2023-04-09T18:15:12.874Z,81.68
2023-04-09T18:17:39.897Z,81.97
2023-04-09T18:20:07.591Z,80.69
2023-04-09T18:22:35.194Z,81.46
2023-04-09T18:25:02.449Z,82.52
2023-04-09T18:27:29.468Z,83.71
2023-04-09T18:29:56.533Z,85.79
2023-04-09T18:32:23.768Z,86.53
2023-04-09T18:34:52.135Z,89.02
2023-04-09T18:37:20.772Z,90.67
2023-04-09T18:39:47.999Z,91.49
2023-04-09T18:42:15.012Z,91.82
2023-04-09T18:44:42.456Z,93.14
2023-04-09T18:47:11.141Z,94.33
2023-04-09T18:49:38.192Z,95.43
2023-04-09T18:52:09.340Z,95.97
2023-04-09T18:54:37.288Z,96.23
2023-04-09T18:57:04.561Z,96.32
2023-04-09T18:59:34.750Z,95.83
2023-04-09T19:02:05.866Z,94.63
2023-04-09T19:04:39.990Z,96.08
2023-04-09T19:07:07.542Z,96.95
2023-04-09T19:09:37.148Z,95.47
2023-04-09T19:12:04.839Z,94.21
2023-04-09T19:14:31.811Z,94.05
2023-04-09T19:16:59.706Z,94.42
2023-04-09T19:19:27.485Z,94.78
2023-04-09T19:21:54.660Z,94.87
2023-04-09T19:24:21.674Z,93.73
2023-04-09T19:26:50.858Z,91.72
2023-04-09T19:29:17.838Z,90.98
2023-04-09T19:31:46.035Z,92.07
2023-04-09T19:34:13.490Z,92.11
2023-04-09T19:36:40.796Z,92.47
2023-04-09T19:39:08.543Z,93.02
2023-04-09T19:41:35.835Z,92.98
2023-04-09T19:44:03.358Z,94.68
2023-04-09T19:46:30.563Z,95.28
2023-04-09T19:48:57.686Z,95.29
2023-04-09T19:51:24.631Z,95.79
2023-04-09T19:53:51.789Z,95.14
2023-04-09T19:56:19.009Z,97.16
2023-04-09T19:58:46.051Z,97.13
2023-04-09T20:01:13.247Z,95.50
2023-04-09T20:03:40.783Z,96.46
2023-04-09T20:06:09.998Z,98.36
2023-04-09T20:08:38.080Z,97.54
2023-04-09T20:11:05.919Z,97.24
2023-04-09T20:13:33.384Z,97.93
2023-04-09T20:16:01.612Z,98.64
2023-04-09T20:18:28.842Z,98.28
2023-04-09T20:20:56.504Z,98.80
2023-04-09T20:23:23.497Z,98.42
2023-04-09T20:25:56.838Z,98.97
2023-04-09T20:28:24.008Z,98.37
2023-04-09T20:30:51.230Z,99.10
2023-04-09T20:33:18.706Z,99.50
2023-04-09T20:35:45.937Z,99.05
2023-04-09T20:38:13.154Z,97.92
2023-04-09T20:40:40.512Z,98.51
2023-04-09T20:43:07.516Z,97.28
2023-04-09T20:45:34.648Z,98.16
2023-04-09T20:48:02.428Z,98.94
2023-04-09T20:50:31.111Z,99.30
2023-04-09T20:52:58.990Z,99.49
2023-04-09T20:55:26.594Z,99.51
2023-04-09T20:57:56.670Z,99.28
2023-04-09T21:00:24.246Z,98.34
2023-04-09T21:02:51.613Z,98.60
2023-04-09T21:05:23.557Z,99.12
2023-04-09T21:07:52.494Z,99.00
2023-04-09T21:10:20.044Z,98.98
2023-04-09T21:12:47.099Z,99.36
2023-04-09T21:15:14.229Z,99.11
2023-04-09T21:17:41.546Z,99.05
2023-04-09T21:20:09.331Z,99.32
2023-04-09T21:22:36.369Z,99.38
2023-04-09T21:25:03.706Z,99.22
2023-04-09T21:27:31.271Z,99.42
2023-04-09T21:29:58.811Z,99.47
2023-04-09T21:32:25.882Z,100.00
2023-04-09T21:34:53.812Z,100.00
2023-04-09T21:37:20.818Z,100.00
2023-04-09T21:39:48.902Z,100.00
2023-04-09T21:42:15.997Z,100.00
2023-04-09T21:44:42.998Z,100.00
2023-04-09T21:47:12.205Z,100.00
2023-04-09T21:49:40.562Z,100.00
2023-04-09T21:52:14.473Z,100.00
2023-04-09T21:54:43.328Z,100.00
2023-04-09T21:57:11.400Z,100.00
2023-04-09T21:59:38.687Z,100.00
2023-04-09T22:02:06.063Z,100.00
2023-04-09T22:04:35.229Z,100.00
2023-04-09T22:07:03.369Z,100.00
2023-04-09T22:09:31.610Z,100.00
2023-04-09T22:11:59.732Z,100.00
2023-04-09T22:14:29.534Z,100.00
2023-04-09T22:16:58.344Z,100.00
2023-04-09T22:19:26.354Z,100.00
2023-04-09T22:21:53.815Z,100.00
2023-04-09T22:24:27.022Z,100.00
2023-04-09T22:26:54.248Z,100.00
2023-04-09T22:29:21.383Z,100.00
2023-04-09T22:31:48.398Z,100.00
2023-04-09T22:34:21.531Z,100.00
2023-04-09T22:36:49.250Z,100.00
2023-04-09T22:39:16.662Z,100.00
2023-04-09T22:41:43.970Z,100.00
2023-04-09T22:44:10.999Z,100.00
2023-04-09T22:46:38.175Z,100.00
2023-04-09T22:49:06.361Z,100.00
2023-04-09T22:51:34.674Z,100.00
2023-04-09T22:54:02.284Z,100.00
2023-04-09T22:56:31.825Z,100.00
2023-04-09T22:58:59.209Z,100.00
2023-04-09T23:01:27.194Z,100.00
2023-04-09T23:03:54.640Z,100.00
2023-04-09T23:06:22.647Z,100.00
2023-04-09T23:08:50.628Z,100.00
2023-04-09T23:11:17.893Z,100.00
2023-04-09T23:13:44.966Z,100.00
2023-04-09T23:16:12.005Z,100.00
2023-04-09T23:18:39.349Z,100.00
2023-04-09T23:21:08.014Z,100.00
2023-04-09T23:23:36.366Z,100.00
2023-04-09T23:26:04.362Z,100.00
2023-04-09T23:28:31.608Z,100.00
2023-04-09T23:30:58.588Z,100.00
2023-04-09T23:33:25.579Z,100.00
2023-04-09T23:35:52.647Z,100.00
2023-04-09T23:38:19.903Z,100.00
2023-04-09T23:40:48.547Z,100.00
2023-04-09T23:43:15.629Z,100.00
2023-04-09T23:45:44.027Z,100.00
2023-04-09T23:48:12.476Z,100.00
2023-04-09T23:50:41.506Z,100.00
2023-04-09T23:53:09.050Z,100.00
2023-04-09T23:55:41.178Z,100.00
2023-04-09T23:58:09.595Z,100.00
